Time;durP1;ratioP1;P1;durP2;ratioP2;P2;SDS_P1;SDS_P2;PMS_P1;PMS_P2;Temp;Humidity;BMP_temperature;BMP_pressure;BME280_temperature;BME280_humidity;BME280_pressure;Samples;Min_cycle;Max_cycle;Signal;HPM_P1;HPM_P2
2022/06/30 00:01:35;;;;;;;;;;;;;;;17.03;100.00;98420.09;5097262;28;19973;-83
2022/06/30 00:04:03;;;;;;;;;;;;;;;16.50;100.00;98424.81;5113763;28;19951;-81
2022/06/30 00:06:31;;;;;;;;;;;;;;;16.92;100.00;98419.88;5113915;28;19947;-81
2022/06/30 00:08:58;;;;;;;;;;;;;;;16.68;100.00;98421.88;5113280;28;19930;-81
2022/06/30 00:11:26;;;;;;;;;;;;;;;17.01;100.00;98414.16;5113426;28;19924;-81
2022/06/30 00:13:53;;;;;;;;;;;;;;;17.19;100.00;98411.94;5112697;28;19924;-81
2022/06/30 00:16:21;;;;;;;;;;;;;;;17.06;100.00;98419.13;5079412;28;19931;-81
2022/06/30 00:18:48;;;;;;;;;;;;;;;16.39;100.00;98419.69;5114671;28;19924;-81
2022/06/30 00:21:16;;;;;;;;;;;;;;;15.95;100.00;98410.94;5079881;28;19930;-81
2022/06/30 00:23:44;;;;;;;;;;;;;;;16.44;100.00;98407.00;5079783;28;20298;-81
2022/06/30 00:26:12;;;;;;;;;;;;;;;16.26;100.00;98416.31;5096300;28;19947;-81
2022/06/30 00:28:39;;;;;;;;;;;;;;;16.56;100.00;98417.25;5113214;28;19925;-81
2022/06/30 00:31:07;;;;;;;;;;;;;;;16.88;100.00;98411.56;5094399;28;19954;-81
2022/06/30 00:33:35;;;;;;;;;;;;;;;17.08;100.00;98416.59;5096455;27;19931;-81
2022/06/30 00:36:02;;;;;;;;;;;;;;;17.17;100.00;98416.53;5114601;28;19977;-81
2022/06/30 00:38:29;;;;;;;;;;;;;;;17.18;100.00;98412.44;5095605;28;20298;-81
2022/06/30 00:40:58;;;;;;;;;;;;;;;17.11;100.00;98410.00;5114176;28;20414;-81
2022/06/30 00:43:25;;;;;;;;;;;;;;;17.23;100.00;98406.91;5114264;28;20166;-81
2022/06/30 00:45:52;;;;;;;;;;;;;;;17.37;100.00;98400.50;5114367;28;19972;-81
2022/06/30 00:48:20;;;;;;;;;;;;;;;17.28;100.00;98397.75;5096140;28;20022;-81
2022/06/30 00:50:47;;;;;;;;;;;;;;;16.87;100.00;98398.75;5114182;28;20378;-81
2022/06/30 00:53:17;;;;;;;;;;;;;;;16.71;100.00;98389.91;5079199;28;19927;-81
2022/06/30 00:55:46;;;;;;;;;;;;;;;16.27;100.00;98393.28;5112855;28;19959;-81
2022/06/30 00:58:15;;;;;;;;;;;;;;;16.12;100.00;98389.59;5113847;28;20340;-81
2022/06/30 01:00:45;;;;;;;;;;;;;;;16.06;100.00;98399.97;5113951;28;20028;-81
2022/06/30 01:03:13;;;;;;;;;;;;;;;16.04;100.00;98396.84;5114109;28;19928;-81
2022/06/30 01:05:40;;;;;;;;;;;;;;;16.10;100.00;98397.75;5112128;28;20404;-81
2022/06/30 01:08:08;;;;;;;;;;;;;;;16.57;100.00;98396.28;5095648;28;20021;-81
2022/06/30 01:13:22;;;;;;;;;;;;;;;16.86;100.00;98404.84;5113880;28;19931;-81
2022/06/30 01:15:49;;;;;;;;;;;;;;;16.70;100.00;98397.59;5095711;28;19970;-81
2022/06/30 01:18:17;;;;;;;;;;;;;;;16.73;100.00;98396.63;5095674;28;19923;-81
2022/06/30 01:20:44;;;;;;;;;;;;;;;16.89;100.00;98409.53;5078641;28;20290;-81
2022/06/30 01:23:12;;;;;;;;;;;;;;;16.97;100.00;98402.25;5112251;28;19931;-81
2022/06/30 01:25:39;;;;;;;;;;;;;;;17.10;100.00;98399.97;5111680;28;19945;-81
2022/06/30 01:28:07;;;;;;;;;;;;;;;17.18;100.00;98395.50;5112153;28;20324;-81
2022/06/30 01:30:35;;;;;;;;;;;;;;;17.14;100.00;98392.09;5112145;28;19930;-81
2022/06/30 01:33:02;;;;;;;;;;;;;;;17.07;100.00;98400.94;5095313;28;19923;-81
2022/06/30 01:35:32;;;;;;;;;;;;;;;16.56;100.00;98408.81;5112865;28;21504;-81
2022/06/30 01:38:00;;;;;;;;;;;;;;;16.03;100.00;98412.19;5111957;28;19928;-81
2022/06/30 01:40:28;;;;;;;;;;;;;;;16.27;100.00;98418.66;5095064;28;19930;-81
2022/06/30 01:42:56;;;;;;;;;;;;;;;16.68;100.00;98410.59;5095357;28;20449;-81
2022/06/30 01:45:23;;;;;;;;;;;;;;;16.62;100.00;98413.31;5112188;28;19960;-81
2022/06/30 01:47:51;;;;;;;;;;;;;;;16.12;100.00;98414.97;5078480;28;20004;-81
2022/06/30 01:50:24;;;;;;;;;;;;;;;16.33;100.00;98418.78;5112040;28;19931;-81
2022/06/30 01:52:52;;;;;;;;;;;;;;;16.27;100.00;98418.66;5094835;28;20440;-81
2022/06/30 01:55:20;;;;;;;;;;;;;;;16.25;100.00;98420.41;5112090;28;19924;-81
2022/06/30 01:57:48;;;;;;;;;;;;;;;16.27;100.00;98417.09;5095128;28;20046;-81
2022/06/30 02:00:17;;;;;;;;;;;;;;;16.03;100.00;98423.44;5112393;28;19928;-81
2022/06/30 02:02:45;;;;;;;;;;;;;;;16.05;100.00;98426.56;5095148;28;20297;-81
2022/06/30 02:05:12;;;;;;;;;;;;;;;16.40;100.00;98420.47;5111971;28;19993;-81
2022/06/30 02:07:40;;;;;;;;;;;;;;;16.57;100.00;98408.31;5061748;28;19935;-81
2022/06/30 02:10:14;;;;;;;;;;;;;;;16.63;100.00;98414.09;5112166;28;19930;-81
2022/06/30 02:12:45;;;;;;;;;;;;;;;16.59;100.00;98414.28;5112031;28;19923;-81
2022/06/30 02:15:14;;;;;;;;;;;;;;;16.73;100.00;98418.41;5113416;28;20314;-81
2022/06/30 02:17:42;;;;;;;;;;;;;;;16.73;100.00;98424.06;5094021;28;19927;-81
2022/06/30 02:20:10;;;;;;;;;;;;;;;16.87;100.00;98423.34;5094689;28;19924;-81
2022/06/30 02:22:39;;;;;;;;;;;;;;;17.00;100.00;98426.69;5078245;28;19959;-81
2022/06/30 02:25:08;;;;;;;;;;;;;;;16.94;100.00;98420.16;5111851;28;19924;-81
2022/06/30 02:27:35;;;;;;;;;;;;;;;16.43;100.00;98427.97;5111965;28;19992;-81
2022/06/30 02:30:04;;;;;;;;;;;;;;;16.42;100.00;98420.78;5094734;28;19976;-81
2022/06/30 02:32:31;;;;;;;;;;;;;;;16.23;100.00;98414.44;5112757;28;19927;-81
2022/06/30 02:34:59;;;;;;;;;;;;;;;15.87;100.00;98412.53;5111539;28;19935;-81
2022/06/30 02:37:26;;;;;;;;;;;;;;;16.24;100.00;98411.16;5096335;28;19981;-81
2022/06/30 02:39:55;;;;;;;;;;;;;;;16.60;100.00;98403.78;5115655;28;20022;-81
2022/06/30 02:42:22;;;;;;;;;;;;;;;16.55;100.00;98408.03;5116593;28;19970;-81
2022/06/30 02:44:50;;;;;;;;;;;;;;;16.77;100.00;98402.88;5115480;28;20393;-81
2022/06/30 02:47:17;;;;;;;;;;;;;;;16.93;100.00;98416.56;5114836;28;19963;-81
2022/06/30 02:49:45;;;;;;;;;;;;;;;16.89;100.00;98409.53;5098269;28;19923;-81
2022/06/30 02:52:12;;;;;;;;;;;;;;;17.02;100.00;98404.41;5114877;28;19923;-81
2022/06/30 02:54:40;;;;;;;;;;;;;;;16.84;100.00;98396.84;5115261;28;20379;-81
2022/06/30 02:57:08;;;;;;;;;;;;;;;17.04;100.00;98399.84;5116340;28;19924;-81
2022/06/30 02:59:35;;;;;;;;;;;;;;;17.17;100.00;98397.56;5081558;28;20081;-81
2022/06/30 03:02:03;;;;;;;;;;;;;;;17.13;100.00;98396.19;5114860;28;20294;-81
2022/06/30 03:04:31;;;;;;;;;;;;;;;17.09;100.00;98392.75;5116363;28;19930;-81
2022/06/30 03:07:00;;;;;;;;;;;;;;;16.92;100.00;98388.84;5114913;28;19923;-81
2022/06/30 03:09:27;;;;;;;;;;;;;;;16.91;100.00;98387.25;5114690;28;20018;-81
2022/06/30 03:11:55;;;;;;;;;;;;;;;16.42;100.00;98382.06;5115168;28;20030;-81
2022/06/30 03:14:23;;;;;;;;;;;;;;;16.17;100.00;98388.97;5114934;28;20026;-81
2022/06/30 03:16:50;;;;;;;;;;;;;;;16.38;100.00;98375.03;5114628;28;19924;-81
2022/06/30 03:19:19;;;;;;;;;;;;;;;16.31;100.00;98375.41;5097376;28;20295;-81
2022/06/30 03:21:47;;;;;;;;;;;;;;;16.57;100.00;98373.72;5114730;28;19927;-81
2022/06/30 03:24:14;;;;;;;;;;;;;;;16.41;100.00;98379.72;5114667;28;19931;-81
2022/06/30 03:26:44;;;;;;;;;;;;;;;16.61;100.00;98379.94;5098039;28;19951;-81
2022/06/30 03:29:12;;;;;;;;;;;;;;;16.13;100.00;98385.50;5115970;28;20351;-81
2022/06/30 03:31:39;;;;;;;;;;;;;;;16.51;100.00;98392.56;5097275;28;19923;-81
2022/06/30 03:34:07;;;;;;;;;;;;;;;16.37;100.00;98408.13;5096918;28;20007;-81
2022/06/30 03:36:34;;;;;;;;;;;;;;;16.09;100.00;98415.13;5114416;28;19951;-81
2022/06/30 03:39:02;;;;;;;;;;;;;;;16.13;100.00;98422.16;5097398;28;20335;-81
2022/06/30 03:41:29;;;;;;;;;;;;;;;16.57;100.00;98427.31;5114271;28;20331;-81
2022/06/30 03:43:56;;;;;;;;;;;;;;;16.74;100.00;98419.97;5097171;28;20301;-81
2022/06/30 03:46:24;;;;;;;;;;;;;;;16.67;100.00;98414.69;5114045;28;19928;-81
2022/06/30 03:48:52;;;;;;;;;;;;;;;16.69;100.00;98410.13;5096414;28;20390;-81
2022/06/30 03:51:19;;;;;;;;;;;;;;;16.57;100.00;98399.09;5115384;28;19955;-81
2022/06/30 03:53:46;;;;;;;;;;;;;;;16.59;100.00;98402.19;5096792;28;19928;-81
2022/06/30 03:56:14;;;;;;;;;;;;;;;16.53;100.00;98415.41;5114073;28;19990;-81
2022/06/30 03:58:42;;;;;;;;;;;;;;;16.50;100.00;98416.34;5096611;28;19934;-81
2022/06/30 04:01:09;;;;;;;;;;;;;;;16.21;100.00;98422.59;5113566;28;19930;-81
2022/06/30 04:03:37;;;;;;;;;;;;;;;16.25;100.00;98426.78;5096727;28;19924;-81
2022/06/30 04:06:05;;;;;;;;;;;;;;;16.47;100.00;98429.38;5113789;28;19923;-81
2022/06/30 04:08:33;;;;;;;;;;;;;;;16.61;100.00;98425.88;5114919;28;19931;-81
2022/06/30 04:11:00;;;;;;;;;;;;;;;16.73;100.00;98426.88;5113726;28;20382;-81
2022/06/30 04:13:27;;;;;;;;;;;;;;;16.87;100.00;98429.78;5114621;28;20010;-81
2022/06/30 04:15:55;;;;;;;;;;;;;;;16.92;100.00;98431.16;5113359;28;20018;-81
2022/06/30 04:18:23;;;;;;;;;;;;;;;16.73;100.00;98430.50;5079824;28;20321;-81
2022/06/30 04:20:51;;;;;;;;;;;;;;;16.16;100.00;98432.47;5114698;28;19932;-81
2022/06/30 04:23:18;;;;;;;;;;;;;;;16.15;100.00;98425.28;5113599;28;19970;-81
2022/06/30 04:25:46;;;;;;;;;;;;;;;15.93;100.00;98423.97;5096603;28;19936;-81
2022/06/30 04:28:13;;;;;;;;;;;;;;;16.19;100.00;98420.25;5096481;28;19923;-81
2022/06/30 04:33:27;;;;;;;;;;;;;;;16.49;100.00;98420.44;5096052;28;19931;-81
2022/06/30 04:35:54;;;;;;;;;;;;;;;16.57;100.00;98424.50;5113311;28;20020;-81
2022/06/30 04:38:21;;;;;;;;;;;;;;;16.46;100.00;98427.03;5062867;28;19923;-81
2022/06/30 04:43:35;;;;;;;;;;;;;;;16.83;100.00;98431.97;5112719;28;19977;-81
2022/06/30 04:46:03;;;;;;;;;;;;;;;16.84;100.00;98433.53;5079248;28;19928;-81
2022/06/30 04:48:30;;;;;;;;;;;;;;;16.76;100.00;98440.81;5079538;28;19946;-81
2022/06/30 04:50:57;;;;;;;;;;;;;;;17.01;100.00;98439.56;5114057;28;19923;-81
2022/06/30 04:53:25;;;;;;;;;;;;;;;17.02;100.00;98436.25;5096117;28;20348;-81
2022/06/30 04:55:53;;;;;;;;;;;;;;;17.10;100.00;98447.94;5114144;28;19928;-81
2022/06/30 04:58:20;;;;;;;;;;;;;;;17.18;100.00;98451.94;5113900;28;19969;-81
2022/06/30 05:00:48;;;;;;;;;;;;;;;17.18;100.00;98454.78;5112053;28;19930;-81
2022/06/30 05:03:15;;;;;;;;;;;;;;;17.16;100.00;98446.03;5114069;28;19984;-81
2022/06/30 05:05:43;;;;;;;;;;;;;;;17.10;100.00;98447.94;5112757;28;20014;-81
2022/06/30 05:08:10;;;;;;;;;;;;;;;17.23;100.00;98445.66;5095454;28;19924;-81
2022/06/30 05:10:38;;;;;;;;;;;;;;;16.75;100.00;98442.06;5096163;28;20323;-81
2022/06/30 05:13:07;;;;;;;;;;;;;;;16.27;100.00;98445.28;5095905;28;20597;-81
2022/06/30 05:15:34;;;;;;;;;;;;;;;16.53;100.00;98446.41;5078668;28;20303;-80
2022/06/30 05:18:02;;;;;;;;;;;;;;;16.46;100.00;98438.31;5112426;28;19927;-81
2022/06/30 05:20:31;;;;;;;;;;;;;;;16.79;100.00;98439.06;5095342;28;20022;-80
2022/06/30 05:22:59;;;;;;;;;;;;;;;17.09;100.00;98435.88;5095455;28;19924;-81
2022/06/30 05:28:12;;;;;;;;;;;;;;;17.06;100.00;98438.88;5129487;27;19924;-81
2022/06/30 05:30:41;;;;;;;;;;;;;;;17.24;100.00;98435.91;5112161;28;19951;-81
2022/06/30 05:33:09;;;;;;;;;;;;;;;17.55;100.00;98433.47;5095361;27;19928;-81
2022/06/30 05:35:37;;;;;;;;;;;;;;;17.85;100.00;98435.84;5112321;28;19927;-81
2022/06/30 05:38:04;;;;;;;;;;;;;;;17.94;100.00;98432.91;5112162;28;19967;-81
2022/06/30 05:40:32;;;;;;;;;;;;;;;18.09;100.00;98432.09;5112118;28;19930;-81
2022/06/30 05:43:12;;;;;;;;;;;;;;;17.78;100.00;98424.13;5112147;28;19924;-81
2022/06/30 05:45:57;;;;;;;;;;;;;;;18.10;100.00;98428.78;5112606;28;20016;-81
2022/06/30 05:48:25;;;;;;;;;;;;;;;17.87;100.00;98424.78;5095464;28;19924;-81
2022/06/30 05:50:53;;;;;;;;;;;;;;;17.86;100.00;98423.25;5111857;28;19924;-81
2022/06/30 05:53:20;;;;;;;;;;;;;;;18.00;100.00;98432.97;5113287;28;20390;-81
2022/06/30 05:55:48;;;;;;;;;;;;;;;17.66;100.00;98428.03;5112025;28;19931;-80
2022/06/30 05:58:17;;;;;;;;;;;;;;;17.59;100.00;98440.50;5095029;28;19962;-81
2022/06/30 06:00:44;;;;;;;;;;;;;;;17.82;100.00;98442.47;5095020;28;20351;-81
2022/06/30 06:03:13;;;;;;;;;;;;;;;18.19;100.00;98437.16;5111932;28;20018;-82
2022/06/30 06:05:41;;;;;;;;;;;;;;;18.38;100.00;98432.88;5112077;28;20004;-81
2022/06/30 06:08:09;;;;;;;;;;;;;;;18.55;100.00;98441.59;5095133;28;19930;-81
2022/06/30 06:10:37;;;;;;;;;;;;;;;18.64;100.00;98439.44;5095517;28;19928;-81
2022/06/30 06:13:06;;;;;;;;;;;;;;;18.25;100.00;98432.34;5115859;28;20351;-81
2022/06/30 06:15:33;;;;;;;;;;;;;;;18.12;100.00;98431.09;5115913;28;19923;-81
2022/06/30 06:18:01;;;;;;;;;;;;;;;18.04;100.00;98430.72;5099110;28;19924;-80
2022/06/30 06:20:29;;;;;;;;;;;;;;;18.21;100.00;98428.16;5115605;28;20439;-81
2022/06/30 06:22:56;;;;;;;;;;;;;;;18.29;100.00;98435.78;5082195;28;20333;-81
2022/06/30 06:25:24;;;;;;;;;;;;;;;17.94;100.00;98437.75;5115839;28;19931;-80
2022/06/30 06:30:37;;;;;;;;;;;;;;;17.85;100.00;98435.84;5116856;27;20295;-81
2022/06/30 06:33:04;;;;;;;;;;;;;;;17.49;100.00;98441.06;5114869;28;20445;-81
2022/06/30 06:35:32;;;;;;;;;;;;;;;17.75;100.00;98436.41;5115462;28;19959;-81
2022/06/30 06:38:01;;;;;;;;;;;;;;;17.36;100.00;98437.69;5115460;28;20333;-81
2022/06/30 06:40:28;;;;;;;;;;;;;;;17.67;100.00;98440.88;5098414;28;19928;-80
2022/06/30 06:42:55;;;;;;;;;;;;;;;17.45;100.00;98437.63;5116414;28;20389;-81
2022/06/30 06:45:22;;;;;;;;;;;;;;;17.23;100.00;98429.50;5115400;28;19923;-81
2022/06/30 06:47:50;;;;;;;;;;;;;;;17.06;100.00;98433.22;5098154;28;19946;-80
2022/06/30 06:50:17;;;;;;;;;;;;;;;17.05;100.00;98428.84;5115402;28;19927;-80
2022/06/30 06:52:45;;;;;;;;;;;;;;;17.09;100.00;98429.44;5098559;28;19959;-80
2022/06/30 06:55:12;;;;;;;;;;;;;;;17.58;100.00;98430.44;5116261;28;20458;-81
2022/06/30 06:57:41;;;;;;;;;;;;;;;17.88;100.00;98429.19;5097747;28;19928;-81
2022/06/30 07:00:09;;;;;;;;;;;;;;;18.67;100.00;98427.13;5097973;28;19923;-80
2022/06/30 07:02:37;;;;;;;;;;;;;;;19.51;100.00;98430.53;5114938;28;19928;-83
2022/06/30 07:05:06;;;;;;;;;;;;;;;19.30;100.00;98423.34;5081588;28;19931;-82
2022/06/30 07:07:37;;;;;;;;;;;;;;;18.86;100.00;98431.25;5115759;28;20298;-82
2022/06/30 07:10:08;;;;;;;;;;;;;;;19.95;100.00;98424.50;5114620;28;19967;-83
2022/06/30 07:12:36;;;;;;;;;;;;;;;19.97;100.00;98424.00;5081566;28;19923;-83
2022/06/30 07:15:03;;;;;;;;;;;;;;;20.73;100.00;98429.53;5114754;28;20455;-84
2022/06/30 07:17:35;;;;;;;;;;;;;;;20.70;100.00;98412.72;5097831;28;20357;-79
2022/06/30 07:20:05;;;;;;;;;;;;;;;20.62;100.00;98423.78;5114778;28;20293;-83
2022/06/30 07:22:32;;;;;;;;;;;;;;;21.26;100.00;98414.56;5063798;28;19924;-82
2022/06/30 07:25:02;;;;;;;;;;;;;;;22.49;100.00;98417.09;5114302;28;19991;-83
2022/06/30 07:27:32;;;;;;;;;;;;;;;24.05;100.00;98418.81;5114554;28;20036;-83
2022/06/30 07:30:00;;;;;;;;;;;;;;;23.97;100.00;98409.28;5097641;28;20022;-83
2022/06/30 07:32:28;;;;;;;;;;;;;;;23.27;100.00;98417.69;5114291;28;19927;-83
2022/06/30 07:34:55;;;;;;;;;;;;;;;22.81;100.00;98416.25;5115709;28;19924;-83
2022/06/30 07:37:22;;;;;;;;;;;;;;;21.98;100.00;98429.75;5079996;28;19924;-84
2022/06/30 07:39:50;;;;;;;;;;;;;;;20.82;100.00;98434.22;5080310;28;20014;-83
2022/06/30 07:42:18;;;;;;;;;;;;;;;20.25;100.00;98442.09;5097525;28;19928;-83
2022/06/30 07:44:46;;;;;;;;;;;;;;;20.22;100.00;98443.84;5097237;28;20293;-83
2022/06/30 07:47:14;;;;;;;;;;;;;;;19.87;100.00;98448.16;5115263;28;19924;-83
2022/06/30 07:49:41;;;;;;;;;;;;;;;19.90;100.00;98441.47;5046921;28;19924;-83
2022/06/30 07:52:09;;;;;;;;;;;;;;;19.97;100.00;98441.03;5062989;28;19931;-83
2022/06/30 07:54:40;;;;;;;;;;;;;;;21.38;100.00;98434.00;5115228;28;20496;-83
2022/06/30 07:57:07;;;;;;;;;;;;;;;22.58;100.00;98425.38;5096997;28;19985;-83
2022/06/30 07:59:54;;;;;;;;;;;;;;;22.89;100.00;98410.81;5115337;28;19930;-84
2022/06/30 08:02:22;;;;;;;;;;;;;;;22.22;100.00;98415.78;5079173;28;19924;-83
2022/06/30 08:04:50;;;;;;;;;;;;;;;21.90;100.00;98423.00;5063405;28;20336;-82
2022/06/30 08:07:17;;;;;;;;;;;;;;;20.93;100.00;98422.94;5096696;28;20019;-82
2022/06/30 08:09:44;;;;;;;;;;;;;;;20.34;100.00;98425.63;5096623;28;20333;-82
2022/06/30 08:12:11;;;;;;;;;;;;;;;20.20;100.00;98428.63;5097051;28;20445;-82
2022/06/30 08:14:39;;;;;;;;;;;;;;;19.64;100.00;98430.91;5096986;28;20342;-83
2022/06/30 08:17:06;;;;;;;;;;;;;;;19.22;100.00;98427.84;5114804;28;19927;-82
2022/06/30 08:19:34;;;;;;;;;;;;;;;19.34;100.00;98429.56;5096653;28;19930;-82
2022/06/30 08:22:01;;;;;;;;;;;;;;;19.50;100.00;98431.81;5114577;28;19930;-82
2022/06/30 08:24:29;;;;;;;;;;;;;;;19.69;100.00;98432.25;5096601;28;19924;-82
2022/06/30 08:26:58;;;;;;;;;;;;;;;19.75;100.00;98430.25;5096561;28;20014;-83
2022/06/30 08:29:25;;;;;;;;;;;;;;;19.39;100.00;98434.50;5096020;28;19955;-85
2022/06/30 08:31:53;;;;;;;;;;;;;;;19.34;100.00;98435.22;5078675;28;19973;-83
2022/06/30 08:34:21;;;;;;;;;;;;;;;19.17;100.00;98445.56;5105708;28;19931;-83
2022/06/30 08:36:49;;;;;;;;;;;;;;;19.00;100.00;98438.91;5096088;28;20303;-82
2022/06/30 08:42:03;;;;;;;;;;;;;;;19.01;100.00;98457.44;5113222;28;19924;-82
2022/06/30 08:44:31;;;;;;;;;;;;;;;18.92;100.00;98449.06;5114450;28;20022;-82
2022/06/30 08:47:00;;;;;;;;;;;;;;;19.21;100.00;98460.28;5112924;28;19938;-82
2022/06/30 08:49:28;;;;;;;;;;;;;;;20.24;100.00;98451.84;5112891;28;19976;-83
2022/06/30 08:51:57;;;;;;;;;;;;;;;20.35;100.00;98449.13;5096243;28;19927;-82
2022/06/30 08:54:26;;;;;;;;;;;;;;;19.90;100.00;98439.44;5110758;28;19931;-82
2022/06/30 08:56:54;;;;;;;;;;;;;;;20.20;100.00;98439.97;5079267;28;20276;-83
2022/06/30 08:59:24;;;;;;;;;;;;;;;20.93;100.00;98425.78;5113968;28;19959;-82
2022/06/30 09:01:56;;;;;;;;;;;;;;;20.82;100.00;98431.38;5095546;28;20007;-83
2022/06/30 09:04:24;;;;;;;;;;;;;;;20.83;100.00;98438.59;5095662;28;19930;-82
2022/06/30 09:06:51;;;;;;;;;;;;;;;19.96;100.00;98417.59;5095424;28;20410;-82
2022/06/30 09:09:19;;;;;;;;;;;;;;;19.60;100.00;98450.19;5095704;28;19946;-82
2022/06/30 09:11:49;;;;;;;;;;;;;;;19.83;100.00;98448.38;5095795;28;20267;-82
2022/06/30 09:14:31;;;;;;;;;;;;;;;19.46;100.00;98448.22;5095093;28;20374;-82
2022/06/30 09:17:01;;;;;;;;;;;;;;;19.51;100.00;98456.03;5096024;28;19924;-82
2022/06/30 09:19:29;;;;;;;;;;;;;;;19.20;100.00;98453.06;5111989;28;19934;-82
2022/06/30 09:22:03;;;;;;;;;;;;;;;19.31;100.00;98464.53;5095731;28;19950;-82
2022/06/30 09:24:30;;;;;;;;;;;;;;;19.73;100.00;98451.88;5112396;28;19924;-82
2022/06/30 09:27:19;;;;;;;;;;;;;;;20.03;100.00;98447.53;5112136;28;20333;-82
2022/06/30 09:29:52;;;;;;;;;;;;;;;20.45;100.00;98448.41;5095902;28;20374;-82
2022/06/30 09:32:45;;;;;;;;;;;;;;;20.84;100.00;98440.16;5113699;28;19924;-82
2022/06/30 09:35:13;;;;;;;;;;;;;;;21.80;100.00;98441.63;5095100;28;19931;-82
2022/06/30 09:37:42;;;;;;;;;;;;;;;22.69;100.00;98439.56;5096036;28;20378;-82
2022/06/30 09:40:10;;;;;;;;;;;;;;;22.36;100.00;98437.53;5095454;28;19924;-82
2022/06/30 09:42:45;;;;;;;;;;;;;;;22.18;100.00;98442.94;5112183;28;19935;-82
2022/06/30 09:45:35;;;;;;;;;;;;;;;22.52;100.00;98433.91;5095638;28;19930;-82
2022/06/30 09:48:03;;;;;;;;;;;;;;;21.67;100.00;98438.47;5095745;28;19924;-82
2022/06/30 09:50:31;;;;;;;;;;;;;;;21.41;100.00;98432.19;5095352;28;19931;-82
2022/06/30 09:53:06;;;;;;;;;;;;;;;20.95;100.00;98449.56;5113261;28;19928;-83
2022/06/30 09:55:41;;;;;;;;;;;;;;;21.04;100.00;98454.22;5078115;28;20337;-82
2022/06/30 09:58:10;;;;;;;;;;;;;;;20.54;100.00;98455.97;5112058;28;19923;-82
2022/06/30 10:00:45;;;;;;;;;;;;;;;20.23;100.00;98451.09;5113171;28;20000;-82
2022/06/30 10:03:16;;;;;;;;;;;;;;;20.43;100.00;98467.25;5109627;28;20306;-82
2022/06/30 10:05:50;;;;;;;;;;;;;;;19.98;100.00;98448.28;5094355;28;20420;-82
2022/06/30 10:08:18;;;;;;;;;;;;;;;20.40;100.00;98456.91;5094999;28;20016;-81
2022/06/30 10:10:45;;;;;;;;;;;;;;;20.71;100.00;98449.13;5113131;28;20290;-81
2022/06/30 10:13:17;;;;;;;;;;;;;;;21.04;100.00;98442.88;5113295;28;19963;-81
2022/06/30 10:15:47;;;;;;;;;;;;;;;21.45;100.00;98449.00;5111853;28;19923;-81
2022/06/30 10:18:16;;;;;;;;;;;;;;;21.80;100.00;98449.38;5113170;28;19927;-81
2022/06/30 10:20:45;;;;;;;;;;;;;;;21.30;100.00;98449.19;5094744;28;19951;-81
2022/06/30 10:23:13;;;;;;;;;;;;;;;21.20;100.00;98451.47;5111776;28;19924;-81
2022/06/30 10:25:41;;;;;;;;;;;;;;;21.02;100.00;98453.97;5094857;28;19927;-81
2022/06/30 10:28:10;;;;;;;;;;;;;;;20.63;100.00;98462.22;5111851;28;19932;-81
2022/06/30 10:30:46;;;;;;;;;;;;;;;20.81;100.00;98463.91;5094375;28;19931;-81
2022/06/30 10:33:19;;;;;;;;;;;;;;;20.35;100.00;98472.59;5112482;28;20396;-81
2022/06/30 10:36:10;;;;;;;;;;;;;;;20.33;100.00;98471.53;5112852;28;20010;-81
2022/06/30 10:38:39;;;;;;;;;;;;;;;20.90;100.00;98460.84;5094691;28;19924;-81
2022/06/30 10:41:07;;;;;;;;;;;;;;;20.84;100.00;98455.13;5094630;28;19924;-81
2022/06/30 10:43:34;;;;;;;;;;;;;;;21.25;100.00;98452.78;5112753;28;20039;-81
2022/06/30 10:46:02;;;;;;;;;;;;;;;21.18;100.00;98458.97;5093935;28;19924;-80
2022/06/30 10:49:50;;;;;;;;;;;;;;;21.10;100.00;98446.50;5131204;27;19923;-79
2022/06/30 10:52:25;;;;;;;;;;;;;;;21.14;100.00;98452.75;5112821;28;20290;-81
2022/06/30 10:55:00;;;;;;;;;;;;;;;21.22;100.00;98453.81;5095765;28;20015;-81
2022/06/30 10:57:48;;;;;;;;;;;;;;;21.03;100.00;98447.78;5129986;28;19923;-82
2022/06/30 11:00:41;;;;;;;;;;;;;;;20.76;100.00;98450.44;5112763;28;19924;-80
2022/06/30 11:03:09;;;;;;;;;;;;;;;21.13;100.00;98456.84;5127756;28;19923;-79
2022/06/30 11:05:50;;;;;;;;;;;;;;;21.45;100.00;98455.44;5112653;28;19977;-79
2022/06/30 11:08:36;;;;;;;;;;;;;;;21.52;100.00;98449.28;5130982;28;19931;-79
2022/06/30 11:11:22;;;;;;;;;;;;;;;22.24;100.00;98449.41;5131107;27;19946;-79
2022/06/30 11:13:50;;;;;;;;;;;;;;;22.23;100.00;98451.50;5112672;28;20328;-79
2022/06/30 11:16:19;;;;;;;;;;;;;;;21.69;100.00;98452.94;5112447;28;20438;-79
2022/06/30 11:18:46;;;;;;;;;;;;;;;21.79;100.00;98450.66;5129160;28;19950;-79
2022/06/30 11:21:14;;;;;;;;;;;;;;;21.79;100.00;98440.09;5129548;28;20010;-79
2022/06/30 11:23:44;;;;;;;;;;;;;;;21.56;100.00;98441.28;5130646;27;20258;-79
2022/06/30 11:29:03;;;;;;;;;;;;;;;22.14;100.00;98450.97;5130611;27;19923;-79
2022/06/30 11:31:35;;;;;;;;;;;;;;;21.57;100.00;98444.91;5095201;28;19931;-79
2022/06/30 11:34:05;;;;;;;;;;;;;;;22.06;100.00;98459.25;5130466;27;19923;-79
2022/06/30 11:36:33;;;;;;;;;;;;;;;22.01;100.00;98445.78;5129162;28;19927;-79
2022/06/30 11:39:05;;;;;;;;;;;;;;;22.45;100.00;98445.78;5129233;28;19924;-79
2022/06/30 11:44:21;;;;;;;;;;;;;;;22.34;100.00;98439.34;5130212;27;19924;-79
2022/06/30 11:46:58;;;;;;;;;;;;;;;21.96;100.00;98438.00;5128290;28;19924;-79
2022/06/30 11:49:27;;;;;;;;;;;;;;;21.78;100.00;98427.13;5130048;27;19924;-79
2022/06/30 11:51:55;;;;;;;;;;;;;;;22.42;100.00;98435.44;5128881;28;19977;-79
2022/06/30 11:54:23;;;;;;;;;;;;;;;22.11;100.00;98432.88;5130774;27;19923;-79
2022/06/30 11:56:52;;;;;;;;;;;;;;;21.63;100.00;98425.81;5128747;28;20022;-79
2022/06/30 11:59:20;;;;;;;;;;;;;;;21.55;100.00;98431.22;5125284;28;20309;-79
2022/06/30 12:02:04;;;;;;;;;;;;;;;21.82;100.00;98439.03;5116256;28;19951;-79
2022/06/30 12:04:32;;;;;;;;;;;;;;;21.79;100.00;98431.56;5116266;28;19923;-79
2022/06/30 12:07:03;;;;;;;;;;;;;;;21.73;100.00;98435.63;5114522;28;19931;-79
2022/06/30 12:09:31;;;;;;;;;;;;;;;21.93;100.00;98427.66;5114173;28;19955;-79
2022/06/30 12:11:59;;;;;;;;;;;;;;;22.51;100.00;98420.97;5116019;28;19924;-79
2022/06/30 12:14:27;;;;;;;;;;;;;;;22.62;100.00;98414.50;5114795;28;20166;-79
2022/06/30 12:16:55;;;;;;;;;;;;;;;22.55;100.00;98410.09;5114658;28;19924;-79
2022/06/30 12:19:25;;;;;;;;;;;;;;;21.61;100.00;98417.78;5114745;28;19934;-79
2022/06/30 12:21:53;;;;;;;;;;;;;;;21.78;100.00;98424.28;5114564;28;19923;-79
2022/06/30 12:24:23;;;;;;;;;;;;;;;21.98;100.00;98415.53;5114570;28;19958;-79
2022/06/30 12:26:52;;;;;;;;;;;;;;;22.07;100.00;98403.91;5114347;28;20011;-79
2022/06/30 12:29:21;;;;;;;;;;;;;;;21.90;100.00;98405.94;5114272;28;19923;-79
2022/06/30 12:32:08;;;;;;;;;;;;;;;21.80;100.00;98410.34;5113830;28;19924;-81
2022/06/30 12:34:50;;;;;;;;;;;;;;;22.29;100.00;98400.28;5114550;28;19959;-82
2022/06/30 12:37:25;;;;;;;;;;;;;;;22.21;100.00;98410.63;5085308;28;19966;-82
2022/06/30 12:39:54;;;;;;;;;;;;;;;22.57;100.00;98404.66;5076980;28;19924;-82
2022/06/30 12:42:22;;;;;;;;;;;;;;;22.71;100.00;98402.81;5093556;28;19928;-81
2022/06/30 12:44:49;;;;;;;;;;;;;;;22.13;100.00;98406.75;5093766;28;19963;-82
2022/06/30 12:47:17;;;;;;;;;;;;;;;22.54;100.00;98402.88;5093542;28;19924;-82
2022/06/30 12:49:45;;;;;;;;;;;;;;;22.82;100.00;98400.75;5094856;28;20378;-82
2022/06/30 12:52:13;;;;;;;;;;;;;;;23.14;100.00;98409.69;5093346;28;19960;-82
2022/06/30 12:54:51;;;;;;;;;;;;;;;23.01;100.00;98415.16;5093341;28;19932;-81
2022/06/30 12:57:18;;;;;;;;;;;;;;;22.82;100.00;98423.53;5093446;28;19979;-82
2022/06/30 12:59:48;;;;;;;;;;;;;;;22.51;100.00;98425.88;5092607;28;20407;-82
2022/06/30 13:02:16;;;;;;;;;;;;;;;22.36;100.00;98409.06;5093330;28;19977;-82
2022/06/30 13:04:49;;;;;;;;;;;;;;;22.61;100.00;98418.66;5093668;28;20341;-81
2022/06/30 13:07:16;;;;;;;;;;;;;;;22.82;100.00;98409.28;5094594;28;20379;-79
2022/06/30 13:21:47;;;;;;;;;;;;;;;23.13;100.00;98424.47;5108605;27;20169;-79